Terminal Aerodrome Forecast
Issued by NWS

Home | Current Version | Previous Version | Text Only | Print | Product List | Glossary On
Versions: 1 2 3 4 5 6 7 8 9 10 11 12 13 14 15 16
000
FTUS45 KLKN 310902 AAA
TAFTPH
TAF AMD
KTPH 310902Z 3109/0106 14014KT P6SM BKN150
     FM311700 17015G25KT P6SM FEW150 OVC200
     FM312100 18025G35KT P6SM SCT150
     FM010300 17010G20KT P6SM FEW250=

USA.gov is the U.S. government's official web portal to all federal, state and local government web resources and services.